sensor_id;sensor_type;location;lat;lon;timestamp;pressure;altitude;pressure_sealevel;temperature;humidity
59419;BME280;45224;50.904;6.038;2023-08-21T00:00:18;100438.06;;;22.47;66.59
59419;BME280;45224;50.904;6.038;2023-08-21T00:01:48;100437.94;;;22.50;66.56
59419;BME280;45224;50.904;6.038;2023-08-21T00:03:19;100427.28;;;22.53;66.27
59419;BME280;45224;50.904;6.038;2023-08-21T00:04:49;100438.41;;;22.37;67.22
59419;BME280;45224;50.904;6.038;2023-08-21T00:06:20;100437.16;;;22.24;68.07
59419;BME280;45224;50.904;6.038;2023-08-21T00:07:50;100434.78;;;22.16;67.92
59419;BME280;45224;50.904;6.038;2023-08-21T00:09:21;100433.69;;;22.22;67.92
59419;BME280;45224;50.904;6.038;2023-08-21T00:10:51;100437.03;;;22.27;67.54
59419;BME280;45224;50.904;6.038;2023-08-21T00:12:22;100432.59;;;22.29;67.33
59419;BME280;45224;50.904;6.038;2023-08-21T00:13:52;100415.03;;;22.28;67.16
59419;BME280;45224;50.904;6.038;2023-08-21T00:15:23;100430.75;;;22.31;67.60
59419;BME280;45224;50.904;6.038;2023-08-21T00:16:53;100427.09;;;22.35;66.89
59419;BME280;45224;50.904;6.038;2023-08-21T00:18:24;100436.78;;;22.33;67.27
59419;BME280;45224;50.904;6.038;2023-08-21T00:19:54;100434.16;;;22.33;67.21
59419;BME280;45224;50.904;6.038;2023-08-21T00:21:25;100435.94;;;22.33;67.32
59419;BME280;45224;50.904;6.038;2023-08-21T00:22:55;100436.06;;;22.30;67.18
59419;BME280;45224;50.904;6.038;2023-08-21T00:24:26;100445.59;;;22.09;68.60
59419;BME280;45224;50.904;6.038;2023-08-21T00:25:57;100434.94;;;21.88;69.10
59419;BME280;45224;50.904;6.038;2023-08-21T00:27:27;100435.53;;;21.73;70.18
59419;BME280;45224;50.904;6.038;2023-08-21T00:28:58;100441.06;;;21.65;70.55
59419;BME280;45224;50.904;6.038;2023-08-21T00:30:29;100437.09;;;21.53;71.64
59419;BME280;45224;50.904;6.038;2023-08-21T00:32:00;100425.88;;;21.48;71.50
59419;BME280;45224;50.904;6.038;2023-08-21T00:33:31;100433.41;;;21.57;71.56
59419;BME280;45224;50.904;6.038;2023-08-21T00:35:02;100429.84;;;21.60;70.91
59419;BME280;45224;50.904;6.038;2023-08-21T00:36:32;100422.09;;;21.55;70.92
59419;BME280;45224;50.904;6.038;2023-08-21T00:38:03;100421.59;;;21.44;71.98
59419;BME280;45224;50.904;6.038;2023-08-21T00:39:33;100411.06;;;21.44;71.34
59419;BME280;45224;50.904;6.038;2023-08-21T00:41:04;100413.75;;;21.42;71.62
59419;BME280;45224;50.904;6.038;2023-08-21T00:42:36;100411.88;;;21.46;71.69
59419;BME280;45224;50.904;6.038;2023-08-21T00:44:07;100419.22;;;21.36;72.25
59419;BME280;45224;50.904;6.038;2023-08-21T00:45:41;100420.31;;;21.30;72.18
59419;BME280;45224;50.904;6.038;2023-08-21T00:47:13;100414.13;;;21.31;72.19
59419;BME280;45224;50.904;6.038;2023-08-21T00:48:44;100415.06;;;21.30;72.47
59419;BME280;45224;50.904;6.038;2023-08-21T00:50:15;100414.94;;;21.33;71.95
59419;BME280;45224;50.904;6.038;2023-08-21T00:51:46;100412.22;;;21.37;71.68
59419;BME280;45224;50.904;6.038;2023-08-21T00:53:17;100415.63;;;21.39;71.95
59419;BME280;45224;50.904;6.038;2023-08-21T00:54:48;100416.28;;;21.45;71.50
59419;BME280;45224;50.904;6.038;2023-08-21T00:56:20;100416.50;;;21.39;72.05
59419;BME280;45224;50.904;6.038;2023-08-21T00:57:51;100415.06;;;21.30;72.49
59419;BME280;45224;50.904;6.038;2023-08-21T00:59:22;100417.03;;;21.24;72.81
59419;BME280;45224;50.904;6.038;2023-08-21T01:00:54;100420.13;;;21.10;73.62
59419;BME280;45224;50.904;6.038;2023-08-21T01:02:25;100417.69;;;21.04;73.84
59419;BME280;45224;50.904;6.038;2023-08-21T01:03:55;100411.63;;;21.02;73.91
59419;BME280;45224;50.904;6.038;2023-08-21T01:05:26;100423.16;;;20.97;73.89
59419;BME280;45224;50.904;6.038;2023-08-21T01:06:57;100421.75;;;20.87;74.80
59419;BME280;45224;50.904;6.038;2023-08-21T01:08:50;100424.81;;;20.73;76.36
59419;BME280;45224;50.904;6.038;2023-08-21T01:10:37;100426.19;;;20.85;75.02
59419;BME280;45224;50.904;6.038;2023-08-21T01:12:25;100422.44;;;20.92;74.95
59419;BME280;45224;50.904;6.038;2023-08-21T01:14:08;100419.97;;;20.88;75.12
59419;BME280;45224;50.904;6.038;2023-08-21T01:15:41;100416.59;;;20.84;74.68
59419;BME280;45224;50.904;6.038;2023-08-21T01:17:14;100423.38;;;20.91;74.52
59419;BME280;45224;50.904;6.038;2023-08-21T01:18:47;100427.41;;;21.02;74.08
59419;BME280;45224;50.904;6.038;2023-08-21T01:20:18;100431.03;;;20.97;74.54
59419;BME280;45224;50.904;6.038;2023-08-21T01:21:49;100432.66;;;21.02;73.83
59419;BME280;45224;50.904;6.038;2023-08-21T01:25:00;100432.31;;;21.12;73.46
59419;BME280;45224;50.904;6.038;2023-08-21T01:26:30;100438.28;;;21.18;73.46
59419;BME280;45224;50.904;6.038;2023-08-21T01:28:01;100437.44;;;21.17;73.17
59419;BME280;45224;50.904;6.038;2023-08-21T01:29:32;100436.09;;;21.04;74.22
59419;BME280;45224;50.904;6.038;2023-08-21T01:34:23;100435.59;;;20.92;74.79
59419;BME280;45224;50.904;6.038;2023-08-21T01:35:53;100429.34;;;20.96;74.34
59419;BME280;45224;50.904;6.038;2023-08-21T01:37:27;100430.09;;;20.72;76.05
59419;BME280;45224;50.904;6.038;2023-08-21T01:38:58;100420.63;;;20.68;76.12
59419;BME280;45224;50.904;6.038;2023-08-21T01:40:29;100426.47;;;20.48;77.65
59419;BME280;45224;50.904;6.038;2023-08-21T01:42:03;100428.84;;;20.55;77.19
59419;BME280;45224;50.904;6.038;2023-08-21T01:43:34;100430.22;;;20.69;76.21
59419;BME280;45224;50.904;6.038;2023-08-21T01:45:05;100439.00;;;20.68;76.76
59419;BME280;45224;50.904;6.038;2023-08-21T01:46:36;100434.56;;;20.70;76.40
59419;BME280;45224;50.904;6.038;2023-08-21T01:48:06;100438.81;;;20.74;76.40
59419;BME280;45224;50.904;6.038;2023-08-21T01:49:37;100425.59;;;20.77;75.84
59419;BME280;45224;50.904;6.038;2023-08-21T01:51:08;100426.59;;;20.73;76.43
59419;BME280;45224;50.904;6.038;2023-08-21T01:52:38;100428.00;;;20.83;75.56
59419;BME280;45224;50.904;6.038;2023-08-21T01:54:08;100427.25;;;20.79;76.09
59419;BME280;45224;50.904;6.038;2023-08-21T01:55:39;100428.41;;;20.71;76.21
59419;BME280;45224;50.904;6.038;2023-08-21T01:57:09;100433.75;;;20.68;76.43
59419;BME280;45224;50.904;6.038;2023-08-21T01:58:40;100431.16;;;20.66;76.54
59419;BME280;45224;50.904;6.038;2023-08-21T02:00:11;100435.50;;;20.69;76.71
59419;BME280;45224;50.904;6.038;2023-08-21T02:01:46;100436.91;;;20.79;76.04
59419;BME280;45224;50.904;6.038;2023-08-21T02:03:16;100432.34;;;20.84;75.47
59419;BME280;45224;50.904;6.038;2023-08-21T02:04:47;100429.78;;;20.83;75.78
59419;BME280;45224;50.904;6.038;2023-08-21T02:06:17;100429.66;;;20.86;75.67
59419;BME280;45224;50.904;6.038;2023-08-21T02:07:49;100432.31;;;20.86;75.96
59419;BME280;45224;50.904;6.038;2023-08-21T02:09:19;100424.38;;;20.87;75.61
59419;BME280;45224;50.904;6.038;2023-08-21T02:10:50;100421.00;;;20.84;75.78
59419;BME280;45224;50.904;6.038;2023-08-21T02:12:21;100422.63;;;20.86;75.96
59419;BME280;45224;50.904;6.038;2023-08-21T02:13:51;100426.09;;;20.88;75.63
59419;BME280;45224;50.904;6.038;2023-08-21T02:15:22;100438.13;;;20.95;75.08
59419;BME280;45224;50.904;6.038;2023-08-21T02:16:53;100438.81;;;21.01;74.88
59419;BME280;45224;50.904;6.038;2023-08-21T02:18:23;100440.41;;;21.06;74.62
59419;BME280;45224;50.904;6.038;2023-08-21T02:19:54;100442.00;;;21.10;74.36
59419;BME280;45224;50.904;6.038;2023-08-21T02:21:25;100434.06;;;21.12;73.96
59419;BME280;45224;50.904;6.038;2023-08-21T02:22:55;100426.56;;;21.01;74.46
59419;BME280;45224;50.904;6.038;2023-08-21T02:24:26;100429.03;;;21.06;74.43
59419;BME280;45224;50.904;6.038;2023-08-21T02:25:56;100427.31;;;21.05;74.21
59419;BME280;45224;50.904;6.038;2023-08-21T02:27:26;100433.25;;;21.10;73.85
59419;BME280;45224;50.904;6.038;2023-08-21T02:28:57;100420.91;;;21.12;73.56
59419;BME280;45224;50.904;6.038;2023-08-21T02:30:28;100428.91;;;21.09;73.77
59419;BME280;45224;50.904;6.038;2023-08-21T02:31:58;100427.31;;;21.05;74.04
59419;BME280;45224;50.904;6.038;2023-08-21T02:33:29;100436.75;;;21.10;73.57
59419;BME280;45224;50.904;6.038;2023-08-21T02:35:00;100428.91;;;21.09;73.78
59419;BME280;45224;50.904;6.038;2023-08-21T02:36:30;100432.47;;;21.08;73.68
59419;BME280;45224;50.904;6.038;2023-08-21T02:38:03;100434.28;;;21.06;74.02
59419;BME280;45224;50.904;6.038;2023-08-21T02:39:33;100430.88;;;21.02;73.86
59419;BME280;45224;50.904;6.038;2023-08-21T02:41:04;100428.59;;;20.93;74.71
59419;BME280;45224;50.904;6.038;2023-08-21T02:42:35;100422.44;;;20.92;74.79
59419;BME280;45224;50.904;6.038;2023-08-21T02:44:06;100424.88;;;20.98;74.02
59419;BME280;45224;50.904;6.038;2023-08-21T02:45:36;100431.97;;;20.96;73.87
59419;BME280;45224;50.904;6.038;2023-08-21T02:47:07;100422.44;;;20.92;74.08
59419;BME280;45224;50.904;6.038;2023-08-21T02:48:37;100424.97;;;20.95;73.97
59419;BME280;45224;50.904;6.038;2023-08-21T02:50:09;100430.94;;;21.01;73.85
59419;BME280;45224;50.904;6.038;2023-08-21T02:51:39;100429.22;;;21.00;73.89
59419;BME280;45224;50.904;6.038;2023-08-21T02:53:10;100428.34;;;20.99;73.79
59419;BME280;45224;50.904;6.038;2023-08-21T02:54:40;100429.13;;;21.03;73.96
59419;BME280;45224;50.904;6.038;2023-08-21T02:56:12;100428.09;;;21.07;73.39
59419;BME280;45224;50.904;6.038;2023-08-21T02:57:43;100425.47;;;21.07;73.91
59419;BME280;45224;50.904;6.038;2023-08-21T02:59:13;100421.03;;;21.09;73.40
59419;BME280;45224;50.904;6.038;2023-08-21T03:00:43;100432.38;;;21.11;73.59
59419;BME280;45224;50.904;6.038;2023-08-21T03:02:14;100425.38;;;21.10;73.44
59419;BME280;45224;50.904;6.038;2023-08-21T03:03:45;100420.22;;;21.07;73.70
59419;BME280;45224;50.904;6.038;2023-08-21T03:05:15;100418.53;;;21.06;73.68
59419;BME280;45224;50.904;6.038;2023-08-21T03:06:46;100422.06;;;21.05;73.82
59419;BME280;45224;50.904;6.038;2023-08-21T03:08:16;100418.63;;;21.03;73.92
59419;BME280;45224;50.904;6.038;2023-08-21T03:09:48;100420.41;;;21.01;73.81
59419;BME280;45224;50.904;6.038;2023-08-21T03:11:18;100416.16;;;20.98;74.02
59419;BME280;45224;50.904;6.038;2023-08-21T03:12:49;100426.72;;;20.96;74.01
59419;BME280;45224;50.904;6.038;2023-08-21T03:14:19;100417.19;;;20.92;74.45
59419;BME280;45224;50.904;6.038;2023-08-21T03:15:50;100421.66;;;20.90;74.73
59419;BME280;45224;50.904;6.038;2023-08-21T03:17:20;100425.25;;;20.86;74.96
59419;BME280;45224;50.904;6.038;2023-08-21T03:18:59;100419.31;;;20.81;75.27
59419;BME280;45224;50.904;6.038;2023-08-21T03:20:32;100422.06;;;20.76;75.31
59419;BME280;45224;50.904;6.038;2023-08-21T03:22:02;100415.16;;;20.74;75.60
59419;BME280;45224;50.904;6.038;2023-08-21T03:23:33;100419.50;;;20.75;75.32
59419;BME280;45224;50.904;6.038;2023-08-21T03:25:04;100418.69;;;20.73;75.95
59419;BME280;45224;50.904;6.038;2023-08-21T03:26:35;100412.59;;;20.72;75.44
59419;BME280;45224;50.904;6.038;2023-08-21T03:28:05;100413.59;;;20.68;76.24
59419;BME280;45224;50.904;6.038;2023-08-21T03:29:36;100412.75;;;20.68;76.33
59419;BME280;45224;50.904;6.038;2023-08-21T03:31:06;100417.16;;;20.67;76.32
59419;BME280;45224;50.904;6.038;2023-08-21T03:32:37;100409.31;;;20.66;76.07
59419;BME280;45224;50.904;6.038;2023-08-21T03:34:07;100409.31;;;20.66;76.48
59419;BME280;45224;50.904;6.038;2023-08-21T03:35:39;100404.13;;;20.63;76.33
59419;BME280;45224;50.904;6.038;2023-08-21T03:37:10;100416.38;;;20.62;76.30
59419;BME280;45224;50.904;6.038;2023-08-21T03:38:41;100410.25;;;20.61;76.46
59419;BME280;45224;50.904;6.038;2023-08-21T03:40:12;100417.28;;;20.61;76.70
59419;BME280;45224;50.904;6.038;2023-08-21T03:41:43;100416.53;;;20.57;76.40
59419;BME280;45224;50.904;6.038;2023-08-21T03:43:13;100409.56;;;20.56;76.69
59419;BME280;45224;50.904;6.038;2023-08-21T03:44:44;100414.81;;;20.56;76.98
59419;BME280;45224;50.904;6.038;2023-08-21T03:46:15;100406.13;;;20.54;76.61
59419;BME280;45224;50.904;6.038;2023-08-21T03:47:46;100406.19;;;20.53;76.88
59419;BME280;45224;50.904;6.038;2023-08-21T03:49:22;100406.22;;;20.51;76.90
59419;BME280;45224;50.904;6.038;2023-08-21T03:50:53;100411.53;;;20.50;77.02
59419;BME280;45224;50.904;6.038;2023-08-21T03:52:23;100411.56;;;20.48;77.29
59419;BME280;45224;50.904;6.038;2023-08-21T03:53:54;100408.00;;;20.49;76.85
59419;BME280;45224;50.904;6.038;2023-08-21T03:55:24;100412.47;;;20.47;77.17
59419;BME280;45224;50.904;6.038;2023-08-21T03:56:55;100406.41;;;20.45;76.95
59419;BME280;45224;50.904;6.038;2023-08-21T03:58:26;100411.66;;;20.45;77.17
59419;BME280;45224;50.904;6.038;2023-08-21T03:59:57;100416.06;;;20.45;77.42
59419;BME280;45224;50.904;6.038;2023-08-21T04:01:28;100412.59;;;20.42;77.20
59419;BME280;45224;50.904;6.038;2023-08-21T04:02:59;100412.59;;;20.42;77.23
59419;BME280;45224;50.904;6.038;2023-08-21T04:04:31;100407.41;;;20.41;77.30
59419;BME280;45224;50.904;6.038;2023-08-21T04:06:02;100414.38;;;20.42;77.41
59419;BME280;45224;50.904;6.038;2023-08-21T04:07:33;100413.66;;;20.37;77.82
59419;BME280;45224;50.904;6.038;2023-08-21T04:09:04;100420.63;;;20.38;77.68
59419;BME280;45224;50.904;6.038;2023-08-21T04:10:36;100422.44;;;20.36;78.06
59419;BME280;45224;50.904;6.038;2023-08-21T04:12:08;100425.06;;;20.36;78.06
59419;BME280;45224;50.904;6.038;2023-08-21T04:13:39;100426.00;;;20.35;77.79
59419;BME280;45224;50.904;6.038;2023-08-21T04:15:10;100438.28;;;20.33;78.24
59419;BME280;45224;50.904;6.038;2023-08-21T04:16:40;100444.47;;;20.32;78.34
59419;BME280;45224;50.904;6.038;2023-08-21T04:18:11;100446.22;;;20.31;78.29
59419;BME280;45224;50.904;6.038;2023-08-21T04:19:41;100440.09;;;20.31;78.19
59419;BME280;45224;50.904;6.038;2023-08-21T04:21:14;100451.59;;;20.27;78.45
59419;BME280;45224;50.904;6.038;2023-08-21T04:22:44;100451.59;;;20.27;78.65
59419;BME280;45224;50.904;6.038;2023-08-21T04:24:15;100452.59;;;20.22;79.04
59419;BME280;45224;50.904;6.038;2023-08-21T04:25:45;100454.41;;;20.20;79.01
59419;BME280;45224;50.904;6.038;2023-08-21T04:27:16;100455.28;;;20.21;79.09
59419;BME280;45224;50.904;6.038;2023-08-21T04:28:46;100463.19;;;20.19;79.00
59419;BME280;45224;50.904;6.038;2023-08-21T04:30:17;100458.78;;;20.20;78.64
59419;BME280;45224;50.904;6.038;2023-08-21T04:31:47;100452.78;;;20.16;78.95
59419;BME280;45224;50.904;6.038;2023-08-21T04:33:18;100457.25;;;20.13;79.05
59419;BME280;45224;50.904;6.038;2023-08-21T04:34:48;100462.00;;;20.00;80.08
59419;BME280;45224;50.904;6.038;2023-08-21T04:36:19;100460.44;;;19.93;80.38
59419;BME280;45224;50.904;6.038;2023-08-21T04:37:52;100465.88;;;19.86;81.04
59419;BME280;45224;50.904;6.038;2023-08-21T04:39:25;100465.19;;;19.80;81.75
59419;BME280;45224;50.904;6.038;2023-08-21T04:41:05;100465.22;;;19.78;82.01
59419;BME280;45224;50.904;6.038;2023-08-21T04:42:36;100466.97;;;19.78;81.51
59419;BME280;45224;50.904;6.038;2023-08-21T04:44:07;100468.06;;;19.69;82.40
59419;BME280;45224;50.904;6.038;2023-08-21T04:45:37;100463.59;;;19.73;81.65
59419;BME280;45224;50.904;6.038;2023-08-21T04:47:25;100467.91;;;19.75;82.12
59419;BME280;45224;50.904;6.038;2023-08-21T04:49:02;100464.72;;;19.64;82.90
59419;BME280;45224;50.904;6.038;2023-08-21T04:50:32;100465.44;;;19.69;82.36
59419;BME280;45224;50.904;6.038;2023-08-21T04:52:03;100468.91;;;19.69;82.15
59419;BME280;45224;50.904;6.038;2023-08-21T04:53:34;100468.00;;;19.72;82.41
59419;BME280;45224;50.904;6.038;2023-08-21T04:55:05;100475.81;;;19.74;82.04
59419;BME280;45224;50.904;6.038;2023-08-21T04:56:38;100477.50;;;19.76;82.10
59419;BME280;45224;50.904;6.038;2023-08-21T04:58:09;100473.16;;;19.77;81.75
59419;BME280;45224;50.904;6.038;2023-08-21T04:59:41;100461.78;;;19.76;81.67
59419;BME280;45224;50.904;6.038;2023-08-21T05:01:12;100464.31;;;19.79;81.92
59419;BME280;45224;50.904;6.038;2023-08-21T05:02:49;100467.75;;;19.81;81.82
59419;BME280;45224;50.904;6.038;2023-08-21T05:04:20;100468.59;;;19.83;81.53
59419;BME280;45224;50.904;6.038;2023-08-21T05:05:54;100479.09;;;19.83;81.68
59419;BME280;45224;50.904;6.038;2023-08-21T05:07:25;100471.28;;;19.80;81.92
59419;BME280;45224;50.904;6.038;2023-08-21T05:08:57;100473.97;;;19.79;82.28
59419;BME280;45224;50.904;6.038;2023-08-21T05:10:29;100467.84;;;19.78;82.52
59419;BME280;45224;50.904;6.038;2023-08-21T05:12:00;100470.53;;;19.77;82.58
59419;BME280;45224;50.904;6.038;2023-08-21T05:13:30;100466.09;;;19.79;82.52
59419;BME280;45224;50.904;6.038;2023-08-21T05:15:01;100462.56;;;19.80;82.24
59419;BME280;45224;50.904;6.038;2023-08-21T05:16:33;100471.22;;;19.83;82.36
59419;BME280;45224;50.904;6.038;2023-08-21T05:18:05;100467.84;;;19.78;82.40
59419;BME280;45224;50.904;6.038;2023-08-21T05:19:36;100479.94;;;19.84;82.00
59419;BME280;45224;50.904;6.038;2023-08-21T05:21:07;100471.22;;;19.83;82.24
59419;BME280;45224;50.904;6.038;2023-08-21T05:22:37;100470.22;;;19.87;81.90
59419;BME280;45224;50.904;6.038;2023-08-21T05:24:08;100474.56;;;19.88;81.64
59419;BME280;45224;50.904;6.038;2023-08-21T05:25:45;100463.97;;;19.92;81.67
59419;BME280;45224;50.904;6.038;2023-08-21T05:27:16;100472.59;;;19.97;81.12
59419;BME280;45224;50.904;6.038;2023-08-21T05:28:46;100474.22;;;20.01;81.18
59419;BME280;45224;50.904;6.038;2023-08-21T05:30:16;100471.50;;;20.04;81.29
59419;BME280;45224;50.904;6.038;2023-08-21T05:31:47;100475.84;;;20.05;81.21
59419;BME280;45224;50.904;6.038;2023-08-21T05:33:18;100473.09;;;20.10;80.94
59419;BME280;45224;50.904;6.038;2023-08-21T05:34:49;100474.88;;;20.09;80.82
59419;BME280;45224;50.904;6.038;2023-08-21T05:36:21;100471.19;;;20.15;80.92
59419;BME280;45224;50.904;6.038;2023-08-21T05:37:52;100475.72;;;20.10;81.30
59419;BME280;45224;50.904;6.038;2023-08-21T05:39:22;100474.66;;;20.15;81.26
59419;BME280;45224;50.904;6.038;2023-08-21T05:40:54;100474.75;;;20.14;81.20
59419;BME280;45224;50.904;6.038;2023-08-21T05:42:25;100477.13;;;20.21;80.79
59419;BME280;45224;50.904;6.038;2023-08-21T05:43:56;100474.53;;;20.20;80.87
59419;BME280;45224;50.904;6.038;2023-08-21T05:45:28;100473.78;;;20.16;81.14
59419;BME280;45224;50.904;6.038;2023-08-21T05:47:00;100472.94;;;20.16;81.30
59419;BME280;45224;50.904;6.038;2023-08-21T05:48:30;100474.63;;;20.17;81.70
59419;BME280;45224;50.904;6.038;2023-08-21T05:50:01;100476.28;;;20.21;81.04
59419;BME280;45224;50.904;6.038;2023-08-21T05:51:32;100483.00;;;20.30;80.47
59419;BME280;45224;50.904;6.038;2023-08-21T05:53:05;100481.94;;;20.37;80.05
59419;BME280;45224;50.904;6.038;2023-08-21T05:54:36;100485.28;;;20.42;79.53
59419;BME280;45224;50.904;6.038;2023-08-21T05:56:08;100492.06;;;20.49;79.16
59419;BME280;45224;50.904;6.038;2023-08-21T05:57:38;100486.81;;;20.49;79.55
59419;BME280;45224;50.904;6.038;2023-08-21T05:59:12;100484.84;;;20.57;79.14
59419;BME280;45224;50.904;6.038;2023-08-21T06:00:42;100496.97;;;20.61;79.12
59419;BME280;45224;50.904;6.038;2023-08-21T06:02:14;100498.69;;;20.64;78.63
59419;BME280;45224;50.904;6.038;2023-08-21T06:03:45;100495.06;;;20.67;78.26
59419;BME280;45224;50.904;6.038;2023-08-21T06:05:48;100496.72;;;20.71;78.25
59419;BME280;45224;50.904;6.038;2023-08-21T06:07:18;100494.84;;;20.74;77.74
59419;BME280;45224;50.904;6.038;2023-08-21T06:08:49;100493.06;;;20.75;77.80
59419;BME280;45224;50.904;6.038;2023-08-21T06:10:19;100497.28;;;20.81;77.16
59419;BME280;45224;50.904;6.038;2023-08-21T06:11:50;100496.31;;;20.83;76.66
59419;BME280;45224;50.904;6.038;2023-08-21T06:13:21;100504.06;;;20.88;76.46
59419;BME280;45224;50.904;6.038;2023-08-21T06:14:54;100496.03;;;20.92;76.64
59419;BME280;45224;50.904;6.038;2023-08-21T06:16:25;100497.66;;;20.96;76.64
59419;BME280;45224;50.904;6.038;2023-08-21T06:17:55;100503.63;;;21.02;76.25
59419;BME280;45224;50.904;6.038;2023-08-21T06:19:26;100499.09;;;21.07;76.26
59419;BME280;45224;50.904;6.038;2023-08-21T06:20:56;100503.31;;;21.12;76.23
59419;BME280;45224;50.904;6.038;2023-08-21T06:22:27;100507.47;;;21.18;76.52
59419;BME280;45224;50.904;6.038;2023-08-21T06:23:57;100510.81;;;21.23;76.27
59419;BME280;45224;50.904;6.038;2023-08-21T06:25:28;100507.94;;;21.31;75.94
59419;BME280;45224;50.904;6.038;2023-08-21T06:27:01;100501.84;;;21.30;75.35
59419;BME280;45224;50.904;6.038;2023-08-21T06:28:31;100506.91;;;21.37;75.18
59419;BME280;45224;50.904;6.038;2023-08-21T06:30:02;100510.13;;;21.45;74.32
59419;BME280;45224;50.904;6.038;2023-08-21T06:31:33;100510.91;;;21.48;74.29
59419;BME280;45224;50.904;6.038;2023-08-21T06:33:03;100510.75;;;21.53;73.75
59419;BME280;45224;50.904;6.038;2023-08-21T06:34:34;100512.41;;;21.56;73.63
59419;BME280;45224;50.904;6.038;2023-08-21T06:36:05;100516.50;;;21.64;73.35
59419;BME280;45224;50.904;6.038;2023-08-21T06:37:35;100510.56;;;21.59;74.21
59419;BME280;45224;50.904;6.038;2023-08-21T06:39:06;100511.28;;;21.63;74.15
59419;BME280;45224;50.904;6.038;2023-08-21T06:40:36;100508.56;;;21.66;73.55
59419;BME280;45224;50.904;6.038;2023-08-21T06:42:07;100513.66;;;21.70;73.51
59419;BME280;45224;50.904;6.038;2023-08-21T06:43:45;100514.47;;;21.73;73.03
59419;BME280;45224;50.904;6.038;2023-08-21T06:45:16;100510.59;;;21.83;72.70
59419;BME280;45224;50.904;6.038;2023-08-21T06:46:49;100509.59;;;21.87;72.82
59419;BME280;45224;50.904;6.038;2023-08-21T06:48:20;100520.81;;;21.92;72.21
59419;BME280;45224;50.904;6.038;2023-08-21T06:49:50;100533.06;;;21.93;72.35
59419;BME280;45224;50.904;6.038;2023-08-21T06:51:21;100528.44;;;22.00;72.19
59419;BME280;45224;50.904;6.038;2023-08-21T06:52:51;100531.81;;;22.03;71.74
59419;BME280;45224;50.904;6.038;2023-08-21T06:54:22;100535.06;;;22.10;71.47
59419;BME280;45224;50.904;6.038;2023-08-21T06:55:52;100531.38;;;22.16;71.46
59419;BME280;45224;50.904;6.038;2023-08-21T06:57:23;100534.81;;;22.18;70.99
59419;BME280;45224;50.904;6.038;2023-08-21T06:58:53;100531.06;;;22.23;70.65
59419;BME280;45224;50.904;6.038;2023-08-21T07:00:25;100535.31;;;22.29;71.17
59419;BME280;45224;50.904;6.038;2023-08-21T07:01:55;100542.16;;;22.33;71.38
59419;BME280;45224;50.904;6.038;2023-08-21T07:03:26;100534.16;;;22.36;71.26
59419;BME280;45224;50.904;6.038;2023-08-21T07:04:57;100531.97;;;22.48;71.21
59419;BME280;45224;50.904;6.038;2023-08-21T07:06:28;100532.69;;;22.53;71.08
59419;BME280;45224;50.904;6.038;2023-08-21T07:07:59;100533.47;;;22.55;70.59
59419;BME280;45224;50.904;6.038;2023-08-21T07:09:30;100539.19;;;22.66;69.81
59419;BME280;45224;50.904;6.038;2023-08-21T07:11:03;100541.44;;;22.77;70.17
59419;BME280;45224;50.904;6.038;2023-08-21T07:12:34;100543.25;;;22.75;69.86
59419;BME280;45224;50.904;6.038;2023-08-21T07:14:05;100541.28;;;22.80;69.51
59419;BME280;45224;50.904;6.038;2023-08-21T07:15:35;100538.34;;;22.88;69.44
59419;BME280;45224;50.904;6.038;2023-08-21T07:17:06;100542.41;;;22.96;69.37
59419;BME280;45224;50.904;6.038;2023-08-21T07:18:38;100542.22;;;23.01;69.60
59419;BME280;45224;50.904;6.038;2023-08-21T07:20:09;100545.59;;;23.05;69.44
59419;BME280;45224;50.904;6.038;2023-08-21T07:21:39;100542.66;;;23.12;68.74
59419;BME280;45224;50.904;6.038;2023-08-21T07:23:10;100537.41;;;23.12;68.26
59419;BME280;45224;50.904;6.038;2023-08-21T07:24:40;100541.53;;;23.20;68.09
59419;BME280;45224;50.904;6.038;2023-08-21T07:26:11;100545.88;;;23.21;67.99
59419;BME280;45224;50.904;6.038;2023-08-21T07:27:41;100541.81;;;23.34;68.02
59419;BME280;45224;50.904;6.038;2023-08-21T07:29:12;100538.88;;;23.42;67.73
59419;BME280;45224;50.904;6.038;2023-08-21T07:30:42;100539.22;;;23.55;67.45
59419;BME280;45224;50.904;6.038;2023-08-21T07:32:13;100539.94;;;23.58;67.40
59419;BME280;45224;50.904;6.038;2023-08-21T07:33:43;100549.94;;;23.70;67.04
59419;BME280;45224;50.904;6.038;2023-08-21T07:35:14;100547.53;;;23.66;67.39
59419;BME280;45224;50.904;6.038;2023-08-21T07:36:45;100538.28;;;23.76;66.67
59419;BME280;45224;50.904;6.038;2023-08-21T07:38:15;100544.22;;;23.81;65.22
59419;BME280;45224;50.904;6.038;2023-08-21T07:39:46;100535.69;;;23.97;64.82
59419;BME280;45224;50.904;6.038;2023-08-21T07:41:16;100544.72;;;23.91;64.57
59419;BME280;45224;50.904;6.038;2023-08-21T07:42:47;100535.25;;;24.06;65.20
59419;BME280;45224;50.904;6.038;2023-08-21T07:44:17;100533.28;;;24.11;64.14
59419;BME280;45224;50.904;6.038;2023-08-21T07:45:49;100535.44;;;24.22;63.87
59419;BME280;45224;50.904;6.038;2023-08-21T07:47:19;100539.72;;;24.24;63.60
59419;BME280;45224;50.904;6.038;2023-08-21T07:48:50;100540.09;;;24.36;63.03
59419;BME280;45224;50.904;6.038;2023-08-21T07:50:20;100535.59;;;24.38;63.03
59419;BME280;45224;50.904;6.038;2023-08-21T07:51:51;100532.19;;;24.55;63.13
59419;BME280;45224;50.904;6.038;2023-08-21T07:53:22;100542.28;;;24.66;62.41
59419;BME280;45224;50.904;6.038;2023-08-21T07:54:53;100534.19;;;24.69;61.75
59419;BME280;45224;50.904;6.038;2023-08-21T07:56:24;100539.84;;;24.80;61.80
59419;BME280;45224;50.904;6.038;2023-08-21T07:57:54;100536.75;;;24.89;61.45
59419;BME280;45224;50.904;6.038;2023-08-21T07:59:25;100541.47;;;25.02;60.86
59419;BME280;45224;50.904;6.038;2023-08-21T08:00:56;100535.16;;;25.04;60.65
59419;BME280;45224;50.904;6.038;2023-08-21T08:02:27;100529.84;;;25.23;60.59